Time;durP1;ratioP1;P1;durP2;ratioP2;P2;SDS_P1;SDS_P2;PMS_P1;PMS_P2;Temp;Humidity;BMP_temperature;BMP_pressure;BME280_temperature;BME280_humidity;BME280_pressure;Samples;Min_cycle;Max_cycle;Signal;HPM_P1;HPM_P2
2022/08/30 00:03:15;;;;;;;7.47;1.65;;;;;;;;;;5105490;28;20173;-62
2022/08/30 00:05:42;;;;;;;2.33;1.73;;;;;;;;;;5104214;28;20130;-63
2022/08/30 00:08:07;;;;;;;4.32;1.17;;;;;;;;;;5106186;28;20040;-62
2022/08/30 00:10:32;;;;;;;1.27;1.17;;;;;;;;;;5105966;28;20048;-62
2022/08/30 00:12:58;;;;;;;3.15;1.45;;;;;;;;;;5105780;28;20048;-62
2022/08/30 00:15:24;;;;;;;2.20;1.15;;;;;;;;;;5105978;28;20051;-62
2022/08/30 00:17:49;;;;;;;6.03;1.23;;;;;;;;;;5105554;28;20039;-62
2022/08/30 00:20:17;;;;;;;3.35;1.23;;;;;;;;;;5105757;28;20115;-62
2022/08/30 00:22:43;;;;;;;1.10;0.60;;;;;;;;;;5103482;28;20992;-62
2022/08/30 00:25:08;;;;;;;1.25;0.60;;;;;;;;;;5104880;28;20455;-62
2022/08/30 00:27:33;;;;;;;7.93;1.75;;;;;;;;;;5103549;28;20031;-62
2022/08/30 00:29:59;;;;;;;1.88;0.95;;;;;;;;;;5106101;28;20039;-62
2022/08/30 00:32:24;;;;;;;21.70;1.48;;;;;;;;;;5101982;28;20049;-62
2022/08/30 00:34:50;;;;;;;2.80;1.45;;;;;;;;;;5103571;28;20127;-62
2022/08/30 00:37:16;;;;;;;0.88;0.65;;;;;;;;;;5104324;28;20415;-62
2022/08/30 00:39:41;;;;;;;1.65;0.77;;;;;;;;;;5105678;28;20046;-62
2022/08/30 00:42:07;;;;;;;2.50;1.05;;;;;;;;;;5105931;28;20114;-62
2022/08/30 00:44:33;;;;;;;2.45;1.95;;;;;;;;;;5104971;28;20150;-63
2022/08/30 00:46:59;;;;;;;2.72;1.88;;;;;;;;;;5104946;28;20138;-63
2022/08/30 00:49:24;;;;;;;1.42;1.00;;;;;;;;;;5104764;28;20050;-63
2022/08/30 00:51:50;;;;;;;2.70;1.33;;;;;;;;;;5104729;28;20036;-61
2022/08/30 00:54:15;;;;;;;8.00;1.48;;;;;;;;;;5105286;28;20043;-61
2022/08/30 00:56:41;;;;;;;2.05;0.70;;;;;;;;;;5104783;28;20039;-60
2022/08/30 00:59:06;;;;;;;2.05;0.98;;;;;;;;;;5105260;28;20043;-60
2022/08/30 01:01:32;;;;;;;1.85;1.00;;;;;;;;;;5103695;28;20520;-60
2022/08/30 01:03:58;;;;;;;2.20;1.23;;;;;;;;;;5105730;28;20049;-60
2022/08/30 01:06:24;;;;;;;2.17;1.13;;;;;;;;;;5105829;28;20050;-61
2022/08/30 01:08:50;;;;;;;1.35;1.02;;;;;;;;;;5104471;28;20040;-60
2022/08/30 01:11:17;;;;;;;1.33;0.80;;;;;;;;;;5103739;28;20097;-60
2022/08/30 01:13:43;;;;;;;2.25;1.65;;;;;;;;;;5104436;28;20052;-61
2022/08/30 01:16:09;;;;;;;5.95;1.60;;;;;;;;;;5104371;28;20461;-60
2022/08/30 01:18:34;;;;;;;3.30;1.08;;;;;;;;;;5105403;28;20047;-61
2022/08/30 01:21:14;;;;;;;1.63;1.00;;;;;;;;;;5104522;28;20065;-60
2022/08/30 01:23:42;;;;;;;6.65;1.30;;;;;;;;;;5102956;28;20050;-60
2022/08/30 01:26:09;;;;;;;8.32;1.30;;;;;;;;;;5104515;28;20533;-62
2022/08/30 01:28:34;;;;;;;4.57;1.40;;;;;;;;;;5102395;28;20079;-62
2022/08/30 01:31:00;;;;;;;4.35;1.60;;;;;;;;;;5105051;28;20103;-62
2022/08/30 01:33:26;;;;;;;1.90;0.80;;;;;;;;;;5103533;28;20024;-62
2022/08/30 01:35:58;;;;;;;1.10;0.95;;;;;;;;;;5104813;28;20043;-62
2022/08/30 01:38:26;;;;;;;1.25;1.00;;;;;;;;;;5105619;28;20075;-62
2022/08/30 01:40:55;;;;;;;1.60;1.00;;;;;;;;;;5104242;28;20070;-62
2022/08/30 01:43:21;;;;;;;2.67;1.42;;;;;;;;;;5105091;28;20055;-62
2022/08/30 01:45:46;;;;;;;1.00;0.70;;;;;;;;;;5104623;28;20048;-62
2022/08/30 01:48:11;;;;;;;1.63;1.08;;;;;;;;;;5101789;28;20130;-62
2022/08/30 01:50:37;;;;;;;4.13;1.15;;;;;;;;;;5105573;28;20892;-62
2022/08/30 01:53:04;;;;;;;2.85;1.17;;;;;;;;;;5104054;28;20036;-61
2022/08/30 01:55:29;;;;;;;3.13;1.33;;;;;;;;;;5101995;28;20046;-61
2022/08/30 01:57:55;;;;;;;4.35;1.85;;;;;;;;;;5105697;28;20056;-62
2022/08/30 02:00:20;;;;;;;1.52;1.00;;;;;;;;;;5104712;28;20701;-62
2022/08/30 02:02:45;;;;;;;1.25;0.90;;;;;;;;;;5105686;28;20043;-61
2022/08/30 02:05:11;;;;;;;1.50;1.10;;;;;;;;;;5105443;28;20359;-61
2022/08/30 02:07:36;;;;;;;1.17;0.70;;;;;;;;;;5108758;28;20126;-61
2022/08/30 02:10:02;;;;;;;1.55;0.77;;;;;;;;;;5107145;28;20438;-62
2022/08/30 02:12:29;;;;;;;2.45;1.33;;;;;;;;;;5108400;28;20232;-62
2022/08/30 02:14:54;;;;;;;2.83;1.42;;;;;;;;;;5103575;28;20081;-62
2022/08/30 02:17:19;;;;;;;1.75;1.02;;;;;;;;;;5106846;28;20048;-62
2022/08/30 02:19:45;;;;;;;1.52;0.75;;;;;;;;;;5107963;28;20363;-63
2022/08/30 02:22:10;;;;;;;1.10;0.80;;;;;;;;;;5089003;28;20237;-62
2022/08/30 02:24:36;;;;;;;2.17;1.25;;;;;;;;;;5108769;28;20066;-62
2022/08/30 02:27:01;;;;;;;2.55;1.42;;;;;;;;;;5108697;28;20097;-62
2022/08/30 02:29:27;;;;;;;1.55;1.40;;;;;;;;;;5107756;28;20051;-63
2022/08/30 02:31:52;;;;;;;2.95;1.77;;;;;;;;;;5107860;28;20039;-63
2022/08/30 02:34:21;;;;;;;2.90;1.23;;;;;;;;;;5108767;28;20062;-63
2022/08/30 02:36:46;;;;;;;1.65;0.93;;;;;;;;;;5108394;28;20075;-63
2022/08/30 02:39:12;;;;;;;8.88;1.80;;;;;;;;;;5106425;28;20051;-62
2022/08/30 02:41:37;;;;;;;2.03;1.23;;;;;;;;;;5107519;28;20039;-62
2022/08/30 02:44:03;;;;;;;5.18;1.25;;;;;;;;;;5106630;28;20039;-62
2022/08/30 02:46:29;;;;;;;1.75;1.17;;;;;;;;;;5107343;28;20036;-61
2022/08/30 02:48:54;;;;;;;4.40;1.90;;;;;;;;;;5108602;28;20534;-62
2022/08/30 02:51:19;;;;;;;4.15;2.03;;;;;;;;;;5108191;28;20050;-62
2022/08/30 02:53:45;;;;;;;4.13;1.85;;;;;;;;;;5107853;28;20089;-61
2022/08/30 02:56:11;;;;;;;1.45;1.30;;;;;;;;;;5104113;28;20032;-61
2022/08/30 02:58:37;;;;;;;1.92;1.40;;;;;;;;;;5108593;28;20139;-61
2022/08/30 03:01:04;;;;;;;1.70;1.20;;;;;;;;;;5107993;28;20115;-62
2022/08/30 03:03:29;;;;;;;1.15;0.80;;;;;;;;;;5107433;28;20063;-60
2022/08/30 03:05:55;;;;;;;2.35;1.50;;;;;;;;;;5105117;28;20044;-61
2022/08/30 03:08:21;;;;;;;2.90;1.80;;;;;;;;;;5107503;28;20039;-62
2022/08/30 03:10:46;;;;;;;2.53;1.55;;;;;;;;;;5108118;28;20053;-62
2022/08/30 03:13:12;;;;;;;2.15;1.52;;;;;;;;;;5108159;28;20043;-60
2022/08/30 03:15:38;;;;;;;1.88;1.23;;;;;;;;;;5103480;28;20063;-62
2022/08/30 03:18:04;;;;;;;2.65;1.80;;;;;;;;;;5104213;28;20055;-62
2022/08/30 03:20:29;;;;;;;1.58;1.10;;;;;;;;;;5108491;28;20043;-62
2022/08/30 03:22:55;;;;;;;1.98;1.33;;;;;;;;;;5108362;28;20043;-62
2022/08/30 03:25:20;;;;;;;2.03;1.10;;;;;;;;;;5107499;28;20079;-61
2022/08/30 03:27:46;;;;;;;2.50;1.63;;;;;;;;;;5107597;28;20039;-61
2022/08/30 03:30:12;;;;;;;3.47;1.58;;;;;;;;;;5108156;28;20051;-61
2022/08/30 03:32:38;;;;;;;2.75;1.55;;;;;;;;;;5107698;28;20445;-61
2022/08/30 03:35:03;;;;;;;1.38;1.02;;;;;;;;;;5105543;28;20562;-61
2022/08/30 03:37:30;;;;;;;2.40;1.15;;;;;;;;;;5107815;28;20104;-60
2022/08/30 03:39:55;;;;;;;2.92;1.20;;;;;;;;;;5106889;28;20036;-62
2022/08/30 03:42:21;;;;;;;2.65;0.98;;;;;;;;;;5106630;28;20131;-61
2022/08/30 03:44:46;;;;;;;2.65;1.60;;;;;;;;;;5107243;28;20059;-61
2022/08/30 03:47:11;;;;;;;4.05;1.20;;;;;;;;;;5107835;28;20032;-62
2022/08/30 03:49:37;;;;;;;5.55;1.73;;;;;;;;;;5107638;28;20806;-61
2022/08/30 03:52:03;;;;;;;10.18;1.85;;;;;;;;;;5107375;28;20051;-61
2022/08/30 03:54:28;;;;;;;1.73;1.15;;;;;;;;;;5106101;28;20518;-61
2022/08/30 03:56:54;;;;;;;11.73;1.73;;;;;;;;;;5106700;28;20105;-61
2022/08/30 03:59:20;;;;;;;2.20;1.52;;;;;;;;;;5107626;28;20651;-61
2022/08/30 04:01:46;;;;;;;1.65;1.25;;;;;;;;;;5106746;28;20047;-61
2022/08/30 04:04:12;;;;;;;1.30;0.60;;;;;;;;;;5105545;28;20048;-61
2022/08/30 04:06:37;;;;;;;3.10;1.48;;;;;;;;;;5106302;28;20070;-61
2022/08/30 04:09:03;;;;;;;4.60;1.10;;;;;;;;;;5106730;28;20071;-61
2022/08/30 04:11:28;;;;;;;3.42;1.70;;;;;;;;;;5103704;28;20044;-61
2022/08/30 04:13:55;;;;;;;1.33;1.02;;;;;;;;;;5106953;28;20076;-61
2022/08/30 04:16:21;;;;;;;5.43;2.03;;;;;;;;;;5106191;28;20082;-61
2022/08/30 04:18:46;;;;;;;1.33;0.95;;;;;;;;;;5106144;28;20690;-62
2022/08/30 04:21:11;;;;;;;4.05;1.40;;;;;;;;;;5106870;28;20411;-61
2022/08/30 04:23:37;;;;;;;1.65;0.98;;;;;;;;;;5106340;28;20082;-60
2022/08/30 04:26:03;;;;;;;3.70;1.25;;;;;;;;;;5106928;28;20452;-62
2022/08/30 04:28:28;;;;;;;3.38;1.20;;;;;;;;;;5104208;28;20043;-62
2022/08/30 04:30:53;;;;;;;1.65;1.35;;;;;;;;;;5106379;28;20063;-61
2022/08/30 04:33:18;;;;;;;2.83;2.10;;;;;;;;;;5106090;28;20032;-61
2022/08/30 04:35:45;;;;;;;5.05;2.20;;;;;;;;;;5106731;28;20387;-62
2022/08/30 04:38:10;;;;;;;5.38;1.20;;;;;;;;;;5106121;28;20415;-62
2022/08/30 04:40:36;;;;;;;6.10;1.55;;;;;;;;;;5105421;28;20154;-61
2022/08/30 04:43:02;;;;;;;1.92;1.35;;;;;;;;;;5104499;28;20518;-62
2022/08/30 04:45:27;;;;;;;2.65;2.00;;;;;;;;;;5106336;28;20122;-62
2022/08/30 04:47:52;;;;;;;6.15;3.17;;;;;;;;;;5105386;28;20043;-61
2022/08/30 04:50:19;;;;;;;10.88;1.95;;;;;;;;;;5105010;28;20134;-61
2022/08/30 04:52:44;;;;;;;1.95;1.27;;;;;;;;;;5105369;28;20124;-62
2022/08/30 04:55:11;;;;;;;3.83;1.77;;;;;;;;;;5104623;28;20043;-62
2022/08/30 04:57:36;;;;;;;2.90;1.50;;;;;;;;;;5104672;28;20524;-62
2022/08/30 05:00:03;;;;;;;2.75;0.88;;;;;;;;;;5103838;28;20086;-62
2022/08/30 05:02:29;;;;;;;8.00;1.17;;;;;;;;;;5104191;28;20046;-61
2022/08/30 05:07:38;;;;;;;2.33;0.90;;;;;;;;;;5104200;28;20481;-62
2022/08/30 05:10:03;;;;;;;3.63;1.95;;;;;;;;;;5103856;28;20067;-62
2022/08/30 05:12:29;;;;;;;8.48;1.85;;;;;;;;;;5103449;28;20051;-61
2022/08/30 05:14:57;;;;;;;4.97;3.55;;;;;;;;;;5104170;28;20172;-60
2022/08/30 05:17:22;;;;;;;2.67;1.38;;;;;;;;;;5105306;28;20051;-61
2022/08/30 05:19:47;;;;;;;1.25;1.08;;;;;;;;;;5103909;28;20109;-61
2022/08/30 05:22:13;;;;;;;3.45;1.45;;;;;;;;;;5104964;28;20055;-61
2022/08/30 05:24:38;;;;;;;3.08;1.95;;;;;;;;;;5102927;28;20134;-61
2022/08/30 05:27:03;;;;;;;2.70;1.40;;;;;;;;;;5104953;28;20032;-61
2022/08/30 05:29:32;;;;;;;22.98;3.50;;;;;;;;;;5103053;28;20118;-61
2022/08/30 05:31:58;;;;;;;2.92;1.63;;;;;;;;;;5103767;28;20093;-61
2022/08/30 05:34:24;;;;;;;8.90;1.98;;;;;;;;;;5104605;28;20043;-61
2022/08/30 05:36:49;;;;;;;5.95;3.38;;;;;;;;;;5108610;28;20076;-60
2022/08/30 05:39:14;;;;;;;1.67;1.30;;;;;;;;;;5108871;28;20044;-60
2022/08/30 05:41:40;;;;;;;3.17;2.10;;;;;;;;;;5090583;28;20054;-60
2022/08/30 05:44:07;;;;;;;8.40;1.65;;;;;;;;;;5108605;28;20159;-60
2022/08/30 05:46:33;;;;;;;7.45;2.13;;;;;;;;;;5108760;28;20047;-60
2022/08/30 05:49:01;;;;;;;5.78;1.52;;;;;;;;;;5106760;28;20051;-60
2022/08/30 05:51:27;;;;;;;3.42;2.05;;;;;;;;;;5107675;28;20093;-60
2022/08/30 05:53:53;;;;;;;6.25;2.85;;;;;;;;;;5108545;28;20043;-60
2022/08/30 05:56:20;;;;;;;3.70;1.65;;;;;;;;;;5108127;28;20122;-60
2022/08/30 05:58:45;;;;;;;2.38;1.58;;;;;;;;;;5107344;28;20051;-61
2022/08/30 06:01:37;;;;;;;3.08;1.88;;;;;;;;;;5108987;28;20115;-60
2022/08/30 06:04:03;;;;;;;14.15;2.60;;;;;;;;;;5103253;28;20091;-60
2022/08/30 06:06:30;;;;;;;6.40;2.80;;;;;;;;;;5107869;28;20042;-61
2022/08/30 06:08:55;;;;;;;12.07;3.60;;;;;;;;;;5107955;28;20039;-60
2022/08/30 06:11:22;;;;;;;21.45;3.33;;;;;;;;;;5107275;28;20043;-60
2022/08/30 06:13:48;;;;;;;14.98;6.05;;;;;;;;;;5106517;28;20040;-60
2022/08/30 06:16:16;;;;;;;13.00;9.93;;;;;;;;;;5106729;28;20317;-60
2022/08/30 06:18:42;;;;;;;16.45;3.75;;;;;;;;;;5105450;28;20039;-60
2022/08/30 06:21:07;;;;;;;17.00;2.35;;;;;;;;;;5107384;28;20580;-60
2022/08/30 06:23:33;;;;;;;11.57;8.40;;;;;;;;;;5107030;28;20055;-60
2022/08/30 06:26:06;;;;;;;22.88;12.80;;;;;;;;;;5108283;28;20425;-61
2022/08/30 06:28:32;;;;;;;26.40;15.02;;;;;;;;;;5107199;28;20047;-60
2022/08/30 06:30:58;;;;;;;19.08;8.23;;;;;;;;;;5107525;28;20139;-60
2022/08/30 06:33:23;;;;;;;11.25;4.65;;;;;;;;;;5106187;28;20044;-60
2022/08/30 06:35:49;;;;;;;13.75;3.00;;;;;;;;;;5107431;28;20177;-60
2022/08/30 06:38:14;;;;;;;10.20;6.82;;;;;;;;;;5107978;28;20063;-60
2022/08/30 06:40:39;;;;;;;18.30;10.23;;;;;;;;;;5107874;28;20043;-60
2022/08/30 06:43:05;;;;;;;24.15;15.30;;;;;;;;;;5106581;28;20604;-60
2022/08/30 06:45:30;;;;;;;34.17;20.85;;;;;;;;;;5106196;28;20414;-59
2022/08/30 06:47:57;;;;;;;28.48;21.77;;;;;;;;;;5106146;28;20490;-61
2022/08/30 06:50:24;;;;;;;19.10;12.77;;;;;;;;;;5102944;28;20044;-61
2022/08/30 06:52:49;;;;;;;8.70;7.28;;;;;;;;;;5106482;28;20032;-60
2022/08/30 06:55:15;;;;;;;11.38;7.05;;;;;;;;;;5106176;28;20044;-60
2022/08/30 06:57:41;;;;;;;11.73;5.70;;;;;;;;;;5107332;28;20074;-60
2022/08/30 07:00:07;;;;;;;17.67;7.00;;;;;;;;;;5107277;28;20067;-59
2022/08/30 07:02:33;;;;;;;11.55;7.78;;;;;;;;;;5104717;28;20082;-60
2022/08/30 07:04:58;;;;;;;19.48;14.43;;;;;;;;;;5106255;28;20079;-60
2022/08/30 07:07:23;;;;;;;29.42;17.08;;;;;;;;;;5107821;28;20093;-60
2022/08/30 07:09:49;;;;;;;24.63;19.15;;;;;;;;;;5107394;28;20079;-59
2022/08/30 07:12:14;;;;;;;25.15;22.33;;;;;;;;;;5106205;27;20089;-60
2022/08/30 07:14:40;;;;;;;28.60;25.27;;;;;;;;;;5106760;28;20101;-60
2022/08/30 07:18:49;;;;;;;24.95;22.40;;;;;;;;;;5106864;28;20522;-60
2022/08/30 07:19:50;;;;;;;26.00;23.20;;;;;;;;;;5108063;28;20048;-60
2022/08/30 07:22:16;;;;;;;34.42;26.17;;;;;;;;;;5106726;28;20067;-60
2022/08/30 07:24:42;;;;;;;18.52;16.58;;;;;;;;;;5105425;28;20109;-60
2022/08/30 07:27:07;;;;;;;23.63;14.32;;;;;;;;;;5105326;28;20032;-60
2022/08/30 07:29:33;;;;;;;21.70;13.65;;;;;;;;;;5106868;28;20044;-60
2022/08/30 07:31:58;;;;;;;20.83;13.38;;;;;;;;;;5106372;28;20071;-60
2022/08/30 07:34:23;;;;;;;17.08;11.50;;;;;;;;;;5106368;28;20139;-60
2022/08/30 07:36:49;;;;;;;14.45;11.00;;;;;;;;;;5103952;28;20138;-60
2022/08/30 07:39:16;;;;;;;16.20;10.30;;;;;;;;;;5107187;28;20492;-60
2022/08/30 07:41:43;;;;;;;17.38;9.98;;;;;;;;;;5104723;28;20501;-59
2022/08/30 07:44:08;;;;;;;17.95;9.98;;;;;;;;;;5106258;28;20126;-60
2022/08/30 07:46:34;;;;;;;21.73;14.55;;;;;;;;;;5104160;27;20126;-60
2022/08/30 07:48:59;;;;;;;15.50;13.80;;;;;;;;;;5105766;28;20036;-60
2022/08/30 07:51:25;;;;;;;16.20;12.68;;;;;;;;;;5105740;28;20086;-60
2022/08/30 07:53:51;;;;;;;40.08;24.00;;;;;;;;;;5105306;28;20532;-60
2022/08/30 07:56:16;;;;;;;42.90;30.10;;;;;;;;;;5105449;28;20070;-60
2022/08/30 07:58:41;;;;;;;36.95;32.42;;;;;;;;;;5084236;28;20048;-60
2022/08/30 08:01:08;;;;;;;37.28;33.35;;;;;;;;;;5105055;28;20131;-60
2022/08/30 08:03:34;;;;;;;45.45;33.88;;;;;;;;;;5106057;28;20078;-61
2022/08/30 08:06:01;;;;;;;32.25;22.55;;;;;;;;;;5105137;28;20071;-60
2022/08/30 08:08:26;;;;;;;22.08;18.77;;;;;;;;;;5104824;28;20036;-60
2022/08/30 08:10:51;;;;;;;78.43;31.60;;;;;;;;;;5105496;28;20066;-60
2022/08/30 08:13:17;;;;;;;18.70;14.20;;;;;;;;;;5104677;28;20044;-60
2022/08/30 08:15:42;;;;;;;23.15;13.77;;;;;;;;;;5102816;28;20952;-60
2022/08/30 08:18:09;;;;;;;26.02;11.93;;;;;;;;;;5103733;28;20062;-60
2022/08/30 08:20:42;;;;;;;11.15;7.50;;;;;;;;;;5168668;27;20172;-61
2022/08/30 08:23:07;;;;;;;8.57;7.70;;;;;;;;;;5147089;27;20076;-60
2022/08/30 08:25:37;;;;;;;9.60;6.40;;;;;;;;;;5145142;27;20107;-60
2022/08/30 08:28:02;;;;;;;4.43;1.98;;;;;;;;;;5127745;27;20115;-60
2022/08/30 08:30:27;;;;;;;5.45;3.13;;;;;;;;;;5148148;27;20076;-60
2022/08/30 08:32:53;;;;;;;7.78;4.95;;;;;;;;;;5151130;27;20129;-60
2022/08/30 08:35:18;;;;;;;10.75;4.68;;;;;;;;;;5148869;27;20682;-58
2022/08/30 08:37:43;;;;;;;7.20;4.95;;;;;;;;;;5130523;27;20026;-60
2022/08/30 08:40:12;;;;;;;14.98;7.30;;;;;;;;;;5149410;27;20066;-60
2022/08/30 08:42:47;;;;;;;7.65;4.53;;;;;;;;;;5148130;27;20567;-59
2022/08/30 08:45:15;;;;;;;18.60;6.85;;;;;;;;;;5148713;27;20047;-60
2022/08/30 08:48:07;;;;;;;5.93;4.85;;;;;;;;;;5146929;27;20027;-60
2022/08/30 08:50:33;;;;;;;88.65;20.58;;;;;;;;;;5143779;27;20034;-60
2022/08/30 08:55:57;;;;;;;3.33;2.47;;;;;;;;;;5148037;27;20053;-60
2022/08/30 08:58:25;;;;;;;9.45;4.25;;;;;;;;;;5142538;27;20550;-60
2022/08/30 09:00:50;;;;;;;5.82;2.38;;;;;;;;;;5132499;27;20038;-60
2022/08/30 09:03:17;;;;;;;1.92;1.73;;;;;;;;;;5146672;27;20511;-60
2022/08/30 09:05:43;;;;;;;3.88;2.30;;;;;;;;;;5149873;27;20126;-60
2022/08/30 09:08:12;;;;;;;1.55;1.15;;;;;;;;;;5148115;27;20134;-59
2022/08/30 09:10:38;;;;;;;2.40;1.70;;;;;;;;;;5145383;27;20079;-60
2022/08/30 09:13:04;;;;;;;1.63;0.98;;;;;;;;;;5146546;27;20049;-60
2022/08/30 09:15:31;;;;;;;4.50;1.70;;;;;;;;;;5144725;27;20046;-60
2022/08/30 09:18:07;;;;;;;3.80;1.70;;;;;;;;;;5151944;27;20125;-60
2022/08/30 09:20:46;;;;;;;7.13;2.47;;;;;;;;;;5146110;27;20047;-60
2022/08/30 09:23:14;;;;;;;5.30;3.63;;;;;;;;;;5146184;27;20064;-61
2022/08/30 09:25:54;;;;;;;3.13;2.25;;;;;;;;;;5147391;27;20038;-61
2022/08/30 09:28:20;;;;;;;;;;;;;;;;;;5150838;27;20043;-60
2022/08/30 09:31:05;;;;;;;5.00;1.10;;;;;;;;;;5138990;27;19919;-60
2022/08/30 09:33:31;;;;;;;1.95;1.20;;;;;;;;;;5128935;27;20046;-61
2022/08/30 09:36:08;;;;;;;4.00;1.63;;;;;;;;;;5112496;27;20405;-60
2022/08/30 09:38:33;;;;;;;2.33;1.70;;;;;;;;;;5115988;27;20082;-60
2022/08/30 09:41:01;;;;;;;1.50;0.90;;;;;;;;;;5135398;27;20079;-61
2022/08/30 09:43:28;;;;;;;4.43;3.38;;;;;;;;;;5131981;27;20150;-61
2022/08/30 09:45:57;;;;;;;10.68;2.38;;;;;;;;;;5126709;27;20034;-61
2022/08/30 09:48:26;;;;;;;2.10;1.10;;;;;;;;;;5134538;27;20502;-60
2022/08/30 09:50:57;;;;;;;2.58;1.77;;;;;;;;;;5131699;27;20035;-61
2022/08/30 09:53:25;;;;;;;3.95;1.55;;;;;;;;;;5132767;27;20053;-60
2022/08/30 09:56:02;;;;;;;10.32;1.33;;;;;;;;;;5134118;27;20042;-60
2022/08/30 09:58:28;;;;;;;2.20;1.42;;;;;;;;;;5129414;27;20039;-60
2022/08/30 10:01:08;;;;;;;2.28;1.20;;;;;;;;;;5131436;27;20047;-60
2022/08/30 10:03:52;;;;;;;13.75;2.20;;;;;;;;;;5132251;27;20035;-60
2022/08/30 10:06:27;;;;;;;1.13;0.60;;;;;;;;;;5129376;27;20043;-60
2022/08/30 10:09:07;;;;;;;8.57;1.92;;;;;;;;;;5128669;27;20043;-60
2022/08/30 10:11:49;;;;;;;3.78;1.55;;;;;;;;;;5130187;27;20046;-60
2022/08/30 10:14:32;;;;;;;3.03;1.85;;;;;;;;;;5132557;27;20050;-60
2022/08/30 10:16:57;;;;;;;7.82;1.27;;;;;;;;;;5129318;27;20032;-60
2022/08/30 10:19:22;;;;;;;2.53;1.60;;;;;;;;;;5133306;27;20055;-61
2022/08/30 10:21:52;;;;;;;8.13;1.25;;;;;;;;;;5134700;27;20054;-60
2022/08/30 10:24:20;;;;;;;1.77;1.17;;;;;;;;;;5131095;27;20072;-60
2022/08/30 10:26:46;;;;;;;3.08;2.13;;;;;;;;;;5135921;27;20035;-60
2022/08/30 10:29:30;;;;;;;5.45;1.50;;;;;;;;;;5134094;27;20140;-60
2022/08/30 10:31:55;;;;;;;11.48;2.15;;;;;;;;;;5138051;27;20062;-60
2022/08/30 10:34:25;;;;;;;2.40;1.25;;;;;;;;;;5135012;27;20051;-60
2022/08/30 10:36:55;;;;;;;2.25;1.60;;;;;;;;;;5130091;27;20087;-60
2022/08/30 10:39:23;;;;;;;3.97;2.28;;;;;;;;;;5128974;27;20043;-58
2022/08/30 10:41:49;;;;;;;1.92;1.05;;;;;;;;;;5130517;27;20062;-60
2022/08/30 10:44:17;;;;;;;3.70;1.05;;;;;;;;;;5129477;27;20035;-61
2022/08/30 10:47:01;;;;;;;2.28;1.38;;;;;;;;;;5129851;27;20058;-60
2022/08/30 10:49:28;;;;;;;2.13;1.92;;;;;;;;;;5126750;27;20099;-60
2022/08/30 10:51:53;;;;;;;2.72;1.67;;;;;;;;;;5122783;27;20081;-60
2022/08/30 10:54:39;;;;;;;16.65;2.13;;;;;;;;;;5130196;27;20070;-60
2022/08/30 10:57:04;;;;;;;5.13;1.50;;;;;;;;;;5130665;27;20054;-60
2022/08/30 10:59:30;;;;;;;3.50;1.45;;;;;;;;;;5129118;27;20498;-62
2022/08/30 11:02:18;;;;;;;2.65;1.38;;;;;;;;;;5130243;27;20042;-61
2022/08/30 11:04:43;;;;;;;1.35;0.85;;;;;;;;;;5133935;27;20051;-60
2022/08/30 11:07:15;;;;;;;2.28;1.23;;;;;;;;;;5131799;27;20104;-60
2022/08/30 11:09:58;;;;;;;1.42;0.73;;;;;;;;;;5131069;27;20054;-60
2022/08/30 11:12:28;;;;;;;5.43;1.30;;;;;;;;;;5129407;27;20053;-59
2022/08/30 11:14:53;;;;;;;1.73;0.90;;;;;;;;;;5127151;27;20134;-60
2022/08/30 11:17:27;;;;;;;1.88;1.05;;;;;;;;;;5132760;27;20122;-60
2022/08/30 11:19:53;;;;;;;3.15;1.23;;;;;;;;;;5122421;27;20053;-60
2022/08/30 11:22:24;;;;;;;2.28;1.50;;;;;;;;;;5129596;27;20043;-60
2022/08/30 11:25:00;;;;;;;1.38;1.23;;;;;;;;;;5134371;27;20538;-59
2022/08/30 11:27:39;;;;;;;3.10;1.48;;;;;;;;;;5124992;27;20052;-60
2022/08/30 11:30:23;;;;;;;1.42;0.95;;;;;;;;;;5130403;27;20066;-59
2022/08/30 11:33:02;;;;;;;1.05;0.77;;;;;;;;;;5128551;27;20531;-60
2022/08/30 11:35:46;;;;;;;2.25;1.50;;;;;;;;;;5131831;27;20114;-60
2022/08/30 11:38:15;;;;;;;3.05;1.15;;;;;;;;;;5128813;27;20130;-60
2022/08/30 11:40:48;;;;;;;4.40;1.15;;;;;;;;;;5124255;27;20058;-60
2022/08/30 11:43:32;;;;;;;1.30;0.70;;;;;;;;;;5132804;27;20035;-60
2022/08/30 11:46:13;;;;;;;3.90;1.50;;;;;;;;;;5125881;27;20069;-60
2022/08/30 11:48:43;;;;;;;2.83;1.38;;;;;;;;;;5123515;27;20577;-59
2022/08/30 11:51:09;;;;;;;;;;;;;;;;;;5127748;27;20035;-59
2022/08/30 11:53:49;;;;;;;3.80;1.90;;;;;;;;;;5130967;27;19911;-60
2022/08/30 11:56:20;;;;;;;2.25;0.98;;;;;;;;;;5130353;27;20049;-60
2022/08/30 11:58:50;;;;;;;3.20;1.00;;;;;;;;;;5130844;27;20051;-60
2022/08/30 12:01:16;;;;;;;1.63;0.80;;;;;;;;;;5128077;27;20040;-60
2022/08/30 12:03:41;;;;;;;4.30;0.70;;;;;;;;;;5135942;27;20122;-60
2022/08/30 12:06:08;;;;;;;3.05;1.77;;;;;;;;;;5130506;27;20039;-59
2022/08/30 12:08:33;;;;;;;1.17;0.90;;;;;;;;;;5127927;27;20031;-60
2022/08/30 12:11:07;;;;;;;1.50;0.93;;;;;;;;;;5133622;27;20050;-60
2022/08/30 12:13:33;;;;;;;2.40;1.30;;;;;;;;;;5130558;27;20043;-59
2022/08/30 12:16:14;;;;;;;2.50;1.00;;;;;;;;;;5129926;27;20035;-59
2022/08/30 12:18:47;;;;;;;1.85;0.77;;;;;;;;;;5132088;27;20375;-59
2022/08/30 12:21:19;;;;;;;10.75;1.20;;;;;;;;;;5129637;27;20775;-59
2022/08/30 12:23:50;;;;;;;2.42;0.98;;;;;;;;;;5131457;27;20082;-60
2022/08/30 12:26:15;;;;;;;5.05;0.57;;;;;;;;;;5129462;27;20051;-60
2022/08/30 12:28:42;;;;;;;0.93;0.70;;;;;;;;;;5128530;27;20054;-60
2022/08/30 12:31:25;;;;;;;0.55;0.32;;;;;;;;;;5128266;27;20043;-60
2022/08/30 12:33:57;;;;;;;1.88;1.25;;;;;;;;;;5133075;27;20535;-60
2022/08/30 12:36:34;;;;;;;1.58;0.82;;;;;;;;;;5128363;27;20047;-59
2022/08/30 12:39:17;;;;;;;1.42;1.30;;;;;;;;;;5130269;27;20046;-60
2022/08/30 12:41:43;;;;;;;4.38;1.30;;;;;;;;;;5128897;27;20739;-60
2022/08/30 12:44:14;;;;;;;1.48;0.93;;;;;;;;;;5130809;27;20031;-60
2022/08/30 12:46:40;;;;;;;5.05;2.00;;;;;;;;;;5130234;27;20043;-60
2022/08/30 12:49:06;;;;;;;1.85;1.15;;;;;;;;;;5127461;27;20055;-60
2022/08/30 12:51:39;;;;;;;1.70;0.65;;;;;;;;;;5128712;27;20114;-60
2022/08/30 12:54:06;;;;;;;1.38;1.00;;;;;;;;;;5079153;27;1353547;-60
2022/08/30 12:56:45;;;;;;;3.83;1.25;;;;;;;;;;5128540;27;20031;-60
2022/08/30 12:59:30;;;;;;;3.83;1.27;;;;;;;;;;5129770;27;20050;-60
2022/08/30 13:02:05;;;;;;;8.45;0.88;;;;;;;;;;5133188;27;20059;-60
2022/08/30 13:04:30;;;;;;;1.45;1.35;;;;;;;;;;5131928;27;20035;-60
2022/08/30 13:07:00;;;;;;;2.80;1.23;;;;;;;;;;5136074;27;20534;-60
2022/08/30 13:09:28;;;;;;;2.75;1.23;;;;;;;;;;5133512;27;20035;-60
2022/08/30 13:11:53;;;;;;;1.80;1.05;;;;;;;;;;5132186;27;20110;-60
2022/08/30 13:14:28;;;;;;;2.38;0.93;;;;;;;;;;5138116;27;20105;-58
2022/08/30 13:17:12;;;;;;;2.40;0.75;;;;;;;;;;5131970;27;20106;-60
2022/08/30 13:19:39;;;;;;;5.00;1.10;;;;;;;;;;5135235;27;20019;-60
2022/08/30 13:22:06;;;;;;;1.98;0.75;;;;;;;;;;5136312;27;20037;-60
2022/08/30 13:24:31;;;;;;;3.05;1.85;;;;;;;;;;5137442;27;20019;-60
2022/08/30 13:27:05;;;;;;;2.78;0.85;;;;;;;;;;5132759;27;20854;-60
2022/08/30 13:29:31;;;;;;;3.78;1.60;;;;;;;;;;5133099;27;20619;-60
2022/08/30 13:31:56;;;;;;;2.97;1.10;;;;;;;;;;5134017;27;20023;-60
2022/08/30 13:34:22;;;;;;;2.97;0.93;;;;;;;;;;5136648;27;20530;-60
2022/08/30 13:36:53;;;;;;;4.18;1.65;;;;;;;;;;5138667;27;20091;-60
2022/08/30 13:39:18;;;;;;;4.30;0.68;;;;;;;;;;5133503;27;20106;-60
2022/08/30 13:41:43;;;;;;;6.20;2.28;;;;;;;;;;5134288;27;20119;-60
2022/08/30 13:44:08;;;;;;;3.88;1.40;;;;;;;;;;5132086;27;20068;-60
2022/08/30 13:46:34;;;;;;;0.90;0.63;;;;;;;;;;5133783;27;20035;-60
2022/08/30 13:49:04;;;;;;;1.50;0.80;;;;;;;;;;5134100;27;20055;-60
2022/08/30 13:51:30;;;;;;;3.75;1.13;;;;;;;;;;5134542;27;20346;-60
2022/08/30 13:53:56;;;;;;;3.33;1.77;;;;;;;;;;5130902;27;20020;-60
2022/08/30 13:56:23;;;;;;;1.27;0.77;;;;;;;;;;5134767;27;20055;-60
2022/08/30 13:58:48;;;;;;;2.35;0.93;;;;;;;;;;5134860;27;20505;-60
2022/08/30 14:01:14;;;;;;;4.53;0.82;;;;;;;;;;5134153;27;20007;-61
2022/08/30 14:03:39;;;;;;;3.30;2.40;;;;;;;;;;5136659;27;20382;-60
2022/08/30 14:06:05;;;;;;;4.00;0.98;;;;;;;;;;5137661;27;20048;-60
2022/08/30 14:08:31;;;;;;;3.90;2.05;;;;;;;;;;5135585;27;20026;-61
2022/08/30 14:10:56;;;;;;;6.20;0.90;;;;;;;;;;5135947;27;20501;-60
2022/08/30 14:13:22;;;;;;;3.20;1.48;;;;;;;;;;5134066;27;20015;-60
2022/08/30 14:15:49;;;;;;;0.75;0.50;;;;;;;;;;5131735;27;20022;-60
2022/08/30 14:18:14;;;;;;;1.33;0.75;;;;;;;;;;5131297;27;20015;-60
2022/08/30 14:20:39;;;;;;;1.67;1.30;;;;;;;;;;5132804;27;20022;-61
2022/08/30 14:23:06;;;;;;;1.38;0.85;;;;;;;;;;5130594;27;20015;-60
2022/08/30 14:25:31;;;;;;;1.42;0.70;;;;;;;;;;5130220;27;20092;-60
2022/08/30 14:27:57;;;;;;;1.10;0.57;;;;;;;;;;5133933;27;20603;-60
2022/08/30 14:30:22;;;;;;;1.80;1.33;;;;;;;;;;5130914;27;20066;-59
2022/08/30 14:32:48;;;;;;;3.58;1.85;;;;;;;;;;5133088;27;20599;-60
2022/08/30 14:35:13;;;;;;;3.05;1.83;;;;;;;;;;5129593;27;20032;-60
2022/08/30 14:37:38;;;;;;;15.85;1.90;;;;;;;;;;5128207;27;20231;-60
2022/08/30 14:40:04;;;;;;;5.38;1.20;;;;;;;;;;5137484;27;20027;-60
2022/08/30 14:42:29;;;;;;;3.25;0.98;;;;;;;;;;5129891;27;20019;-60
2022/08/30 14:44:54;;;;;;;2.45;0.77;;;;;;;;;;5128075;27;20382;-60
2022/08/30 14:47:20;;;;;;;9.27;1.45;;;;;;;;;;5129403;27;20030;-61
2022/08/30 14:49:45;;;;;;;2.40;1.15;;;;;;;;;;5129800;27;20031;-61
2022/08/30 14:52:10;;;;;;;2.53;1.70;;;;;;;;;;5128844;27;20054;-61